Time;durP1;ratioP1;P1;durP2;ratioP2;P2;SDS_P1;SDS_P2;PMS_P1;PMS_P2;Temp;Humidity;BMP_temperature;BMP_pressure;BME280_temperature;BME280_humidity;BME280_pressure;Samples;Min_cycle;Max_cycle;Signal;HPM_P1;HPM_P2
2021/09/22 00:01:59;320680.00;1.07;553.47;0.00;0.00;0.62;;;;;17.80;1.00;;;;;;2245668;61;945;-84
2021/09/22 00:04:26;373456.00;1.24;644.18;0.00;0.00;0.62;;;;;17.30;1.00;;;;;;2249553;61;1004;-80
2021/09/22 00:06:54;248484.00;0.83;429.34;0.00;0.00;0.62;;;;;17.30;1.00;;;;;;2255806;61;938;-83
2021/09/22 00:09:21;381620.00;1.27;658.21;81968.00;0.27;142.44;;;;;17.70;1.00;;;;;;2257148;61;1402;-84
2021/09/22 00:11:48;256945.00;0.86;443.89;0.00;0.00;0.62;;;;;17.70;1.00;;;;;;2257528;61;1011;-84
2021/09/22 00:14:15;276111.00;0.92;476.85;0.00;0.00;0.62;;;;;17.90;1.00;;;;;;2256293;61;1013;-82
2021/09/22 00:21:38;244783.00;0.82;422.98;0.00;0.00;0.62;;;;;18.10;1.00;;;;;;2282643;60;1425;-84
2021/09/22 00:24:07;276640.00;0.92;477.76;0.00;0.00;0.62;;;;;18.00;1.00;;;;;;2276296;61;983;-84
2021/09/22 00:26:34;307343.00;1.02;530.54;0.00;0.00;0.62;;;;;17.90;1.00;;;;;;2276267;61;1040;-84
2021/09/22 00:29:01;242273.00;0.81;418.66;0.00;0.00;0.62;;;;;18.00;1.00;;;;;;2266188;61;1473;-82
2021/09/22 00:31:29;204932.00;0.68;354.41;0.00;0.00;0.62;;;;;18.00;1.00;;;;;;2275970;61;962;-84
2021/09/22 00:33:56;253244.00;0.84;437.53;0.00;0.00;0.62;;;;;18.00;1.00;;;;;;2266442;61;1006;-81
2021/09/22 00:36:23;86889.00;0.29;150.94;0.00;0.00;0.62;;;;;17.90;1.00;;;;;;2263745;61;938;-82
2021/09/22 00:38:49;244794.00;0.82;423.00;10262.00;0.03;18.40;;;;;17.60;1.00;;;;;;2257673;61;1999;-83
2021/09/22 00:41:19;235647.00;0.79;407.26;0.00;0.00;0.62;;;;;17.70;1.00;;;;;;2263908;61;1685;-81
2021/09/22 00:43:46;252389.00;0.84;436.06;0.00;0.00;0.62;;;;;17.70;1.00;;;;;;2258343;61;1001;-80
2021/09/22 00:46:13;232847.00;0.78;402.45;0.00;0.00;0.62;;;;;17.90;1.00;;;;;;2268363;61;982;-83
2021/09/22 00:48:40;118273.00;0.39;205.10;0.00;0.00;0.62;;;;;17.90;1.00;;;;;;2268276;61;1017;-83
2021/09/22 00:51:08;322421.00;1.07;556.46;0.00;0.00;0.62;;;;;18.10;1.00;;;;;;2261776;61;1309;-83
2021/09/22 00:53:36;255018.00;0.85;440.58;0.00;0.00;0.62;;;;;18.10;1.00;;;;;;2269302;60;1005;-84
2021/09/22 00:58:34;306699.00;1.02;529.44;0.00;0.00;0.62;;;;;17.70;1.00;;;;;;2282658;60;1899;-82
2021/09/22 01:01:01;185218.00;0.62;320.47;0.00;0.00;0.62;;;;;17.80;1.00;;;;;;2269706;61;1389;-82
2021/09/22 01:03:28;279240.00;0.93;482.23;0.00;0.00;0.62;;;;;18.00;1.00;;;;;;2276007;61;1008;-83
2021/09/22 01:10:51;74477.00;0.25;129.50;0.00;0.00;0.62;;;;;18.00;1.00;;;;;;2286377;60;1338;-83
2021/09/22 01:13:19;242834.00;0.81;419.63;0.00;0.00;0.62;;;;;17.00;1.00;;;;;;2284830;60;985;-83
2021/09/22 01:15:47;292414.00;0.97;504.88;0.00;0.00;0.62;;;;;16.30;1.00;;;;;;2276876;60;923;-80
2021/09/22 01:18:21;243909.00;0.81;421.47;0.00;0.00;0.62;;;;;15.90;1.00;;;;;;2284715;60;1915;-81
2021/09/22 01:23:17;144191.00;0.48;249.80;0.00;0.00;0.62;;;;;16.50;1.00;;;;;;2282293;60;1329;-83
2021/09/22 01:25:48;307021.00;1.02;529.99;0.00;0.00;0.62;;;;;16.80;1.00;;;;;;2279993;61;1712;-84
2021/09/22 01:28:18;118364.00;0.39;205.26;0.00;0.00;0.62;;;;;16.60;1.00;;;;;;2270151;61;978;-81
2021/09/22 01:30:46;129902.00;0.43;225.16;0.00;0.00;0.62;;;;;16.70;1.00;;;;;;2271648;61;1222;-81
2021/09/22 01:33:16;56562.00;0.19;98.53;0.00;0.00;0.62;;;;;16.80;1.00;;;;;;2271233;61;1045;-83
2021/09/22 01:35:45;67195.00;0.22;116.91;0.00;0.00;0.62;;;;;17.00;1.00;;;;;;2272397;61;949;-82
2021/09/22 01:38:15;76548.00;0.26;133.07;0.00;0.00;0.62;;;;;17.40;1.00;;;;;;2265575;61;1045;-82
2021/09/22 01:40:53;76997.00;0.26;133.85;0.00;0.00;0.62;;;;;17.50;1.00;;;;;;2262232;61;1444;-82
2021/09/22 01:43:21;150179.00;0.50;260.12;0.00;0.00;0.62;;;;;17.30;1.00;;;;;;2259063;61;946;-83
2021/09/22 01:45:48;146190.00;0.49;253.24;0.00;0.00;0.62;;;;;17.00;1.00;;;;;;2256544;61;1028;-82
2021/09/22 01:48:16;184735.00;0.62;319.64;0.00;0.00;0.62;;;;;16.60;1.00;;;;;;2258327;61;977;-81
2021/09/22 01:50:43;304870.00;1.02;526.29;0.00;0.00;0.62;;;;;16.90;1.00;;;;;;2252099;61;1471;-85
2021/09/22 01:53:10;178810.00;0.60;309.44;0.00;0.00;0.62;;;;;17.30;1.00;;;;;;2248076;61;1037;-86
2021/09/22 01:55:38;120737.00;0.40;209.35;0.00;0.00;0.62;;;;;17.70;1.00;;;;;;2241808;61;1041;-80
2021/09/22 01:58:08;175122.00;0.58;303.09;0.00;0.00;0.62;;;;;17.70;1.00;;;;;;2240680;61;1380;-84
2021/09/22 02:00:35;28895.00;0.10;50.67;0.00;0.00;0.62;;;;;17.80;1.00;;;;;;2241923;61;1923;-83
2021/09/22 02:03:02;11029.00;0.04;19.73;0.00;0.00;0.62;;;;;17.60;1.00;;;;;;2252664;61;918;-81
2021/09/22 02:05:29;94712.00;0.32;164.44;0.00;0.00;0.62;;;;;17.70;1.00;;;;;;2253126;61;1005;-81
2021/09/22 02:10:24;386748.00;1.29;667.02;4938.00;0.02;9.18;;;;;17.70;1.00;;;;;;2282163;60;1398;-83
2021/09/22 02:12:51;84613.00;0.28;147.00;0.00;0.00;0.62;;;;;17.60;1.00;;;;;;2270594;60;959;-84
2021/09/22 02:15:20;172873.00;0.58;299.22;0.00;0.00;0.62;;;;;17.70;1.00;;;;;;2280066;60;1039;-81
2021/09/22 02:17:47;155479.00;0.52;269.25;34216.00;0.11;59.88;;;;;17.60;1.00;;;;;;2273641;60;937;-84
2021/09/22 02:22:43;162181.00;0.54;280.80;0.00;0.00;0.62;;;;;16.80;1.00;;;;;;2282659;60;1417;-81
2021/09/22 02:25:12;33060.00;0.11;57.88;0.00;0.00;0.62;;;;;16.10;1.00;;;;;;2280409;60;1318;-82
2021/09/22 02:27:40;325400.00;1.08;561.58;114951.00;0.38;199.37;;;;;15.90;1.00;;;;;;2270356;60;973;-82
2021/09/22 02:30:10;56482.00;0.19;98.39;0.00;0.00;0.62;;;;;16.20;1.00;;;;;;2272627;60;1289;-83
2021/09/22 02:32:39;81624.00;0.27;141.84;0.00;0.00;0.62;;;;;16.80;1.00;;;;;;2273685;60;996;-81
2021/09/22 02:35:07;61436.00;0.20;106.96;0.00;0.00;0.62;;;;;17.00;1.00;;;;;;2271386;61;910;-84
2021/09/22 02:37:34;142950.00;0.48;247.66;0.00;0.00;0.62;;;;;16.60;1.00;;;;;;2262171;61;926;-84
2021/09/22 02:40:01;132519.00;0.44;229.67;0.00;0.00;0.62;;;;;16.20;1.00;;;;;;2259610;61;1923;-82
2021/09/22 02:42:28;53157.00;0.18;92.65;0.00;0.00;0.62;;;;;16.50;1.00;;;;;;2259655;61;1012;-83
2021/09/22 02:44:55;162167.00;0.54;280.77;0.00;0.00;0.62;;;;;16.50;1.00;;;;;;2259889;61;1088;-83
2021/09/22 02:47:22;47349.00;0.16;82.60;0.00;0.00;0.62;;;;;16.40;1.00;;;;;;2259822;61;1009;-84
2021/09/22 02:49:50;319029.00;1.06;550.63;48671.00;0.16;84.89;;;;;16.40;1.00;;;;;;2259782;61;1294;-84
2021/09/22 02:52:17;71498.00;0.24;124.35;0.00;0.00;0.62;;;;;16.20;1.00;;;;;;2256591;61;978;-86
2021/09/22 02:54:44;21045.00;0.07;37.08;0.00;0.00;0.62;;;;;15.70;1.00;;;;;;2260313;61;1027;-81
2021/09/22 02:57:11;40233.00;0.13;70.29;0.00;0.00;0.62;;;;;15.50;1.00;;;;;;2252625;61;935;-81
2021/09/22 02:59:38;150976.00;0.50;261.49;0.00;0.00;0.62;;;;;15.10;1.00;;;;;;2261025;61;1999;-83
2021/09/22 03:04:33;126959.00;0.42;220.09;0.00;0.00;0.62;;;;;14.50;1.00;;;;;;2286802;61;1318;-82
2021/09/22 03:07:02;146352.00;0.49;253.52;0.00;0.00;0.62;;;;;14.40;1.00;;;;;;2284475;60;906;-82
2021/09/22 03:09:29;95308.00;0.32;165.47;0.00;0.00;0.62;;;;;14.20;1.00;;;;;;2284419;60;1253;-82
2021/09/22 03:11:55;83083.00;0.28;144.36;0.00;0.00;0.62;;;;;14.50;1.00;;;;;;2279445;61;989;-83
2021/09/22 03:14:23;61487.00;0.20;107.05;0.00;0.00;0.62;;;;;14.90;1.00;;;;;;2279770;61;994;-83
2021/09/22 03:16:50;50901.00;0.17;88.74;0.00;0.00;0.62;;;;;15.10;1.00;;;;;;2273254;61;964;-82
2021/09/22 03:19:17;55392.00;0.18;96.51;0.00;0.00;0.62;;;;;15.20;1.00;;;;;;2279591;61;1919;-83
2021/09/22 03:21:44;27058.00;0.09;47.49;0.00;0.00;0.62;;;;;15.90;1.00;;;;;;2279587;61;973;-81
2021/09/22 03:24:13;92437.00;0.31;160.52;6797.00;0.02;12.40;;;;;16.00;1.00;;;;;;2272691;61;978;-84
2021/09/22 03:26:40;35598.00;0.12;62.27;0.00;0.00;0.62;;;;;16.40;1.00;;;;;;2279761;61;965;-83
2021/09/22 03:34:02;73497.00;0.24;127.80;0.00;0.00;0.62;;;;;17.60;1.00;;;;;;2286178;60;1403;-83
2021/09/22 03:38:57;27423.00;0.09;48.12;0.00;0.00;0.62;;;;;17.00;1.00;;;;;;2282176;60;1943;-81
2021/09/22 03:43:53;39659.00;0.13;69.30;0.00;0.00;0.62;;;;;16.40;1.00;;;;;;2285808;60;1397;-80
2021/09/22 03:46:20;35757.00;0.12;62.55;0.00;0.00;0.62;;;;;16.90;1.00;;;;;;2277117;60;935;-83
2021/09/22 03:48:47;49972.00;0.17;87.14;0.00;0.00;0.62;;;;;17.00;1.00;;;;;;2280667;60;1005;-84
2021/09/22 03:53:42;19054.00;0.06;33.63;0.00;0.00;0.62;;;;;17.00;1.00;;;;;;2282760;61;1298;-83
2021/09/22 03:56:09;36642.00;0.12;64.08;0.00;0.00;0.62;;;;;17.30;1.00;;;;;;2280107;60;1067;-82
2021/09/22 03:58:36;16826.00;0.06;29.77;0.00;0.00;0.62;;;;;17.60;1.00;;;;;;2274652;61;1070;-81
2021/09/22 04:01:04;41395.00;0.14;72.30;0.00;0.00;0.62;;;;;17.60;1.00;;;;;;2268835;61;1948;-82
2021/09/22 04:08:27;169031.00;0.56;292.60;0.00;0.00;0.62;;;;;17.50;1.00;;;;;;2282051;60;1393;-82
2021/09/22 04:13:22;80091.00;0.27;139.19;0.00;0.00;0.62;;;;;17.30;1.00;;;;;;2286807;61;1329;-84
2021/09/22 04:15:49;219188.00;0.73;378.95;0.00;0.00;0.62;;;;;17.60;1.00;;;;;;2275568;61;957;-83
2021/09/22 04:23:14;58539.00;0.20;101.95;0.00;0.00;0.62;;;;;18.20;1.00;;;;;;2286192;60;1389;-82
2021/09/22 04:25:41;64733.00;0.22;112.66;0.00;0.00;0.62;;;;;18.30;1.00;;;;;;2276337;61;932;-82
2021/09/22 04:28:09;198370.00;0.66;343.12;0.00;0.00;0.62;;;;;18.20;1.00;;;;;;2276482;61;1396;-83
2021/09/22 04:33:04;67470.00;0.22;117.39;0.00;0.00;0.62;;;;;17.60;1.00;;;;;;2282549;60;1468;-82
2021/09/22 04:45:25;89759.00;0.30;155.89;0.00;0.00;0.62;;;;;16.00;1.00;;;;;;2282340;60;1409;-81
2021/09/22 04:47:55;147342.00;0.49;255.23;0.00;0.00;0.62;;;;;14.50;1.00;;;;;;2270500;60;936;-81
2021/09/22 04:50:23;137049.00;0.46;237.48;0.00;0.00;0.62;;;;;13.70;1.00;;;;;;2277112;60;1436;-82
2021/09/22 04:52:50;134800.00;0.45;233.61;0.00;0.00;0.62;;;;;12.90;1.00;;;;;;2270529;60;945;-84
2021/09/22 04:57:45;145595.00;0.49;252.22;0.00;0.00;0.62;;;;;12.00;1.00;;;;;;2282967;60;1385;-81
2021/09/22 05:00:13;136385.00;0.45;236.34;0.00;0.00;0.62;;;;;12.00;1.00;;;;;;2280687;60;1999;-83
2021/09/22 05:05:10;75869.00;0.25;131.90;0.00;0.00;0.62;;;;;11.60;1.00;;;;;;2282600;60;1401;-83
2021/09/22 05:10:06;94443.00;0.31;163.98;0.00;0.00;0.62;;;;;11.40;1.00;;;;;;2287056;60;1388;-81
2021/09/22 05:15:00;158846.00;0.53;275.05;0.00;0.00;0.62;;;;;12.10;4.70;;;;;;2286297;60;1373;-82
2021/09/22 05:19:55;14125.00;0.05;25.10;0.00;0.00;0.62;;;;;13.20;1.00;;;;;;2286947;60;1981;-84
2021/09/22 05:22:24;78072.00;0.26;135.71;0.00;0.00;0.62;;;;;13.70;1.00;;;;;;2274972;60;941;-84
2021/09/22 05:24:50;43805.00;0.15;76.47;0.00;0.00;0.62;;;;;14.10;1.00;;;;;;2285497;60;977;-83
2021/09/22 05:27:17;23868.00;0.08;41.97;0.00;0.00;0.62;;;;;14.20;1.00;;;;;;2512294;39;3905;31
2021/09/22 05:32:12;52038.00;0.17;90.71;0.00;0.00;0.62;;;;;14.10;1.00;;;;;;2287439;60;2014;-81
2021/09/22 05:34:41;75091.00;0.25;130.56;0.00;0.00;0.62;;;;;14.20;1.00;;;;;;2285311;60;988;-83
2021/09/22 05:37:09;274126.00;0.91;473.44;0.00;0.00;0.62;;;;;14.50;1.00;;;;;;2285290;60;952;-85
2021/09/22 05:39:39;90069.00;0.30;156.43;0.00;0.00;0.62;;;;;14.40;1.00;;;;;;2274787;60;1990;-83
2021/09/22 05:42:06;85632.00;0.29;148.76;0.00;0.00;0.62;;;;;14.70;1.00;;;;;;2272290;60;935;-85
2021/09/22 05:44:33;58854.00;0.20;102.50;0.00;0.00;0.62;;;;;14.80;1.00;;;;;;2272632;60;993;-84
2021/09/22 05:49:28;417693.00;1.39;720.22;56434.00;0.19;98.31;;;;;14.80;1.00;;;;;;2286811;60;1415;-81
2021/09/22 05:54:23;20909.00;0.07;36.84;0.00;0.00;0.62;;;;;14.60;1.00;;;;;;2286619;60;1394;-81
2021/09/22 05:59:19;63173.00;0.21;109.96;0.00;0.00;0.62;;;;;15.70;1.00;;;;;;2286991;60;1427;-82
2021/09/22 06:01:46;71037.00;0.24;123.55;0.00;0.00;0.62;;;;;15.60;1.00;;;;;;2285422;60;1997;-82
2021/09/22 06:04:13;92779.00;0.31;161.11;0.00;0.00;0.62;;;;;16.30;1.00;;;;;;2285427;60;897;-84
2021/09/22 06:06:40;23797.00;0.08;41.84;0.00;0.00;0.62;;;;;16.60;1.00;;;;;;2315476;39;4245;31
2021/09/22 06:09:07;169886.00;0.57;294.07;0.00;0.00;0.62;;;;;16.40;1.00;;;;;;2273655;60;1380;-83
2021/09/22 06:14:02;78392.00;0.26;136.26;0.00;0.00;0.62;;;;;16.60;1.00;;;;;;2286821;60;1190;-82
2021/09/22 06:23:54;35428.00;0.12;61.98;0.00;0.00;0.62;;;;;17.10;1.00;;;;;;2286880;60;1400;-82
2021/09/22 06:26:23;19265.00;0.06;34.00;0.00;0.00;0.62;;;;;17.30;1.00;;;;;;2277717;60;958;-84
2021/09/22 06:28:50;9110.00;0.03;16.41;0.00;0.00;0.62;;;;;18.30;1.00;;;;;;2284335;60;890;-82
2021/09/22 06:31:17;36262.00;0.12;63.42;0.00;0.00;0.62;;;;;18.50;1.00;;;;;;2281076;60;1361;-84
2021/09/22 06:36:12;75214.00;0.25;130.77;0.00;0.00;0.62;;;;;17.90;1.00;;;;;;2286895;60;1463;-80
2021/09/22 06:38:39;152728.00;0.51;264.51;0.00;0.00;0.62;;;;;18.50;1.00;;;;;;2285085;60;905;-82
2021/09/22 06:41:08;210771.00;0.70;364.46;0.00;0.00;0.62;;;;;18.40;1.00;;;;;;2277576;60;2009;-84
2021/09/22 06:43:35;25225.00;0.08;44.32;0.00;0.00;0.62;;;;;18.40;1.00;;;;;;2272367;60;949;-82
2021/09/22 06:46:03;29121.00;0.10;51.06;0.00;0.00;0.62;;;;;18.00;1.00;;;;;;2271465;60;1556;-85
2021/09/22 06:48:31;18417.00;0.06;32.53;0.00;0.00;0.62;;;;;18.30;1.00;;;;;;2272521;60;914;-83
2021/09/22 06:55:56;12590.00;0.04;22.44;0.00;0.00;0.62;;;;;19.70;1.00;;;;;;2282065;60;1207;-83
2021/09/22 06:58:26;10197.00;0.03;18.29;0.00;0.00;0.62;;;;;20.00;1.00;;;;;;2275946;60;1015;-82
2021/09/22 07:00:53;92066.00;0.31;159.87;0.00;0.00;0.62;;;;;20.00;1.00;;;;;;2272951;60;2002;-83
2021/09/22 07:03:20;28339.00;0.09;49.71;0.00;0.00;0.62;;;;;19.40;1.00;;;;;;2264348;61;1008;-83
2021/09/22 07:05:47;150743.00;0.50;261.09;49817.00;0.17;86.87;;;;;19.50;1.00;;;;;;2264520;61;1026;-84
2021/09/22 07:08:14;12588.00;0.04;22.43;0.00;0.00;0.62;;;;;20.10;1.00;;;;;;2264450;61;935;-82
2021/09/22 07:10:41;27436.00;0.09;48.14;0.00;0.00;0.62;;;;;20.90;1.00;;;;;;2264347;61;1301;-82
2021/09/22 07:13:09;16452.00;0.05;29.13;0.00;0.00;0.62;;;;;21.30;1.00;;;;;;2264423;61;1029;-81
2021/09/22 07:15:37;9794.00;0.03;17.59;0.00;0.00;0.62;;;;;21.60;1.00;;;;;;2264229;61;1006;-82
2021/09/22 07:18:05;73733.00;0.25;128.21;0.00;0.00;0.62;;;;;21.80;1.00;;;;;;2267973;61;966;-82
2021/09/22 07:23:00;81186.00;0.27;141.09;0.00;0.00;0.62;;;;;20.40;1.00;;;;;;2286442;60;1420;-82
2021/09/22 07:37:53;85244.00;0.28;148.09;0.00;0.00;0.62;;;;;20.90;1.00;;;;;;2518801;40;3532;31
2021/09/22 08:05:04;162219.00;0.54;280.86;69480.00;0.23;120.86;;;;;20.80;1.00;;;;;;2519033;40;3490;31
2021/09/22 08:56:54;50607.00;0.17;88.24;0.00;0.00;0.62;;;;;20.40;1.00;;;;;;2511748;55;3599;31
2021/09/22 10:13:32;191492.00;0.64;331.28;70954.00;0.24;123.41;;;;;20.60;1.00;;;;;;2512381;55;3636;31
2021/09/22 10:38:43;0.00;0.00;0.62;0.00;0.00;0.62;;;;;20.10;1.00;;;;;;2518672;40;3477;31
2021/09/22 10:48:37;129601.00;0.43;224.64;63196.00;0.21;110.00;;;;;19.60;1.00;;;;;;2278871;61;916;-88
2021/09/22 10:56:08;45847.00;0.15;80.00;0.00;0.00;0.62;;;;;19.20;1.00;;;;;;2274751;61;915;-88
2021/09/22 11:38:07;181775.00;0.61;314.55;0.00;0.00;0.62;;;;;20.40;1.00;;;;;;2512872;40;3618;31
2021/09/22 11:48:00;341282.00;1.14;588.88;115223.00;0.38;199.84;;;;;20.60;1.00;;;;;;2279597;61;936;-87
2021/09/22 11:52:55;321265.00;1.07;554.47;78637.00;0.26;136.68;;;;;20.40;1.00;;;;;;2279254;61;1299;-88
2021/09/22 12:02:50;326840.00;1.09;564.05;77375.00;0.26;134.50;;;;;20.70;1.00;;;;;;2279308;61;959;-86
2021/09/22 12:07:54;251244.00;0.84;434.09;60250.00;0.20;104.91;;;;;21.80;1.00;;;;;;2279504;61;1302;-88
2021/09/22 12:45:09;39966.00;0.13;69.83;0.00;0.00;0.62;;;;;20.70;1.00;;;;;;2511874;55;3633;31
2021/09/22 12:55:12;0.00;0.00;0.62;0.00;0.00;0.62;;;;;20.50;1.00;;;;;;2287215;61;903;-87
2021/09/22 13:22:41;0.00;0.00;0.62;0.00;0.00;0.62;;;;;20.20;1.00;;;;;;2508158;40;3352;31
2021/09/22 13:37:29;41770.00;0.14;72.95;0.00;0.00;0.62;;;;;20.50;1.00;;;;;;2283088;61;957;-87
2021/09/22 15:21:35;58127.00;0.19;101.24;0.00;0.00;0.62;;;;;19.50;1.00;;;;;;2278460;61;1938;-88
2021/09/22 15:46:13;109880.00;0.37;190.62;0.00;0.00;0.62;;;;;19.80;1.00;;;;;;2515029;55;3642;31
2021/09/22 16:03:30;70818.00;0.24;123.17;0.00;0.00;0.62;;;;;19.70;1.00;;;;;;2513430;40;3451;31
2021/09/22 16:23:17;171839.00;0.57;297.43;83823.00;0.28;145.64;;;;;19.70;1.00;;;;;;2513499;40;3485;31
2021/09/22 16:35:34;183699.00;0.61;317.86;70332.00;0.23;122.33;;;;;19.60;1.00;;;;;;2513528;55;3609;31
2021/09/22 16:45:28;461711.00;1.54;795.93;65441.00;0.22;113.88;;;;;19.40;1.00;;;;;;2282470;60;1051;-90
2021/09/22 16:47:55;282297.00;0.94;487.49;76169.00;0.25;132.42;;;;;19.30;1.00;;;;;;2273425;60;1022;-89
2021/09/22 16:50:23;322029.00;1.07;555.79;71455.00;0.24;124.27;;;;;19.20;1.00;;;;;;2280713;60;1116;-89
2021/09/22 16:52:51;353180.00;1.18;609.33;71360.00;0.24;124.11;;;;;19.30;1.00;;;;;;2273547;60;1320;-90
2021/09/22 16:55:18;328924.00;1.10;567.64;67104.00;0.22;116.76;;;;;19.30;1.00;;;;;;2280700;60;1045;-89
2021/09/22 16:57:45;251540.00;0.84;434.60;72219.00;0.24;125.59;;;;;19.10;1.00;;;;;;2280526;60;1121;-89
2021/09/22 17:00:13;492568.00;1.64;849.03;57148.00;0.19;99.55;;;;;19.10;1.00;;;;;;2280677;60;976;-89
2021/09/22 17:02:41;307796.00;1.03;531.32;82787.00;0.28;143.85;;;;;19.10;1.00;;;;;;2280606;60;2001;-90
2021/09/22 17:05:09;422071.00;1.41;727.75;80284.00;0.27;139.53;;;;;19.10;1.00;;;;;;2280699;60;1013;-91
2021/09/22 17:07:36;407337.00;1.36;702.42;108261.00;0.36;187.83;;;;;19.00;1.00;;;;;;2273515;60;1020;-89
2021/09/22 17:10:04;641995.00;2.14;1106.79;116995.00;0.39;202.90;;;;;18.90;1.00;;;;;;2270059;60;977;-90
2021/09/22 17:12:31;674995.00;2.25;1163.90;136760.00;0.46;236.99;;;;;18.90;1.00;;;;;;2280528;60;1378;-90
2021/09/22 17:14:58;354187.00;1.18;611.06;70413.00;0.23;122.47;;;;;18.80;1.00;;;;;;2271730;61;1024;-90
2021/09/22 17:17:25;452357.00;1.51;779.84;75841.00;0.25;131.85;;;;;18.60;1.00;;;;;;2267812;61;979;-89
2021/09/22 17:19:53;431591.00;1.44;744.12;94754.00;0.32;164.52;;;;;18.90;1.00;;;;;;2258015;61;998;-89
2021/09/22 17:22:24;396803.00;1.32;684.31;88646.00;0.30;153.97;;;;;19.10;1.00;;;;;;2267761;61;1926;-88
2021/09/22 17:24:51;346598.00;1.16;598.01;81345.00;0.27;141.36;;;;;19.30;1.00;;;;;;2267609;61;1813;-89
2021/09/22 17:27:18;466162.00;1.55;803.59;82042.00;0.27;142.56;;;;;19.60;1.00;;;;;;2267754;61;1139;-89
2021/09/22 17:29:45;500046.00;1.67;861.90;83102.00;0.28;144.40;;;;;19.80;1.00;;;;;;2267832;61;1048;-89
2021/09/22 17:32:12;508132.00;1.69;875.83;79715.00;0.27;138.54;;;;;19.90;1.00;;;;;;2268976;61;1420;-89
2021/09/22 17:34:39;406943.00;1.36;701.74;81517.00;0.27;141.66;;;;;19.80;1.00;;;;;;2276696;60;917;-89
2021/09/22 17:37:08;405945.00;1.35;700.03;60278.00;0.20;104.96;;;;;19.70;1.00;;;;;;2280596;60;931;-89
2021/09/22 17:39:35;435473.00;1.45;750.80;94600.00;0.32;164.25;;;;;19.80;1.00;;;;;;2280575;60;1102;-89
2021/09/22 17:42:02;297326.00;0.99;513.32;79240.00;0.26;137.72;;;;;19.70;1.00;;;;;;2280364;60;2001;-88
2021/09/22 17:44:29;234058.00;0.78;404.53;72748.00;0.24;126.51;;;;;19.90;1.00;;;;;;2280436;60;1214;-89
2021/09/22 17:46:56;259652.00;0.87;448.55;76869.00;0.26;133.63;;;;;20.00;1.00;;;;;;2280506;60;930;-90
2021/09/22 17:49:24;382373.00;1.27;659.50;74696.00;0.25;129.87;;;;;20.10;1.00;;;;;;2280469;60;1758;-89
2021/09/22 17:51:51;345537.00;1.15;596.19;74034.00;0.25;128.73;;;;;20.20;1.00;;;;;;2280325;60;1636;-91
2021/09/22 17:54:19;326769.00;1.09;563.93;77938.00;0.26;135.48;;;;;20.10;1.00;;;;;;2280215;60;1138;-89
2021/09/22 17:56:46;363415.00;1.21;626.92;84710.00;0.28;147.17;;;;;20.20;1.00;;;;;;2280471;60;1003;-90
2021/09/22 17:59:13;326042.00;1.09;562.68;70506.00;0.24;122.63;;;;;20.10;1.00;;;;;;2280515;60;988;-89
2021/09/22 18:01:50;438446.00;1.46;755.91;76021.00;0.25;132.16;;;;;20.00;1.00;;;;;;2280466;60;1992;-90
2021/09/22 18:04:17;531639.00;1.77;916.32;83751.00;0.28;145.52;;;;;20.10;1.00;;;;;;2280396;60;1172;-89
2021/09/22 18:06:46;452929.00;1.51;780.82;81870.00;0.27;142.27;;;;;20.10;1.00;;;;;;2280439;60;925;-89
2021/09/22 18:09:13;573566.00;1.91;988.60;66338.00;0.22;115.43;;;;;20.30;1.00;;;;;;2280419;60;1673;-90
2021/09/22 18:11:41;415990.00;1.39;717.30;79640.00;0.27;138.42;;;;;20.40;1.00;;;;;;2280423;60;1720;-90
2021/09/22 18:14:08;324732.00;1.08;560.43;71617.00;0.24;124.55;;;;;20.60;1.00;;;;;;2280414;60;918;-90
2021/09/22 18:16:36;502583.00;1.68;866.27;74984.00;0.25;130.37;;;;;20.80;1.00;;;;;;2280337;60;1694;-89
2021/09/22 18:19:06;402179.00;1.34;693.55;57909.00;0.19;100.86;;;;;20.90;1.00;;;;;;2280334;60;1028;-89
2021/09/22 18:21:36;393897.00;1.31;679.31;77229.00;0.26;134.25;;;;;20.90;1.00;;;;;;2280284;60;2025;-90
2021/09/22 18:24:05;371756.00;1.24;641.26;72587.00;0.24;126.23;;;;;21.10;1.00;;;;;;2280404;60;1018;-89
2021/09/22 18:26:32;383637.00;1.28;661.68;80436.00;0.27;139.79;;;;;20.90;1.00;;;;;;2280349;60;904;-91
2021/09/22 18:29:01;346519.00;1.16;597.88;76238.00;0.25;132.54;;;;;20.70;1.00;;;;;;2280371;60;1007;-90
2021/09/22 18:31:31;565255.00;1.88;974.26;110754.00;0.37;192.13;;;;;20.40;1.00;;;;;;2280311;60;1602;-90
2021/09/22 18:33:58;297295.00;0.99;513.27;67710.00;0.23;117.80;;;;;20.50;1.00;;;;;;2280376;60;988;-90
2021/09/22 18:36:28;426299.00;1.42;735.02;90994.00;0.30;158.02;;;;;20.60;1.00;;;;;;2280336;60;1705;-90
2021/09/22 18:38:58;421408.00;1.40;726.61;75389.00;0.25;131.07;;;;;20.70;1.00;;;;;;2280342;60;977;-90
2021/09/22 18:41:25;507395.00;1.69;874.56;72469.00;0.24;126.03;;;;;20.80;1.00;;;;;;2280189;60;2017;-89
2021/09/22 18:43:52;547732.00;1.83;944.05;72521.00;0.24;126.12;;;;;21.00;1.00;;;;;;2280155;60;922;-88
2021/09/22 18:46:21;672365.00;2.24;1159.35;125188.00;0.42;217.03;;;;;21.00;1.00;;;;;;2280422;60;1043;-88
2021/09/22 18:48:49;371087.00;1.24;640.11;61080.00;0.20;106.34;;;;;21.10;1.00;;;;;;2280330;60;1559;-89
2021/09/22 18:51:17;414219.00;1.38;714.25;86493.00;0.29;150.25;;;;;21.00;1.00;;;;;;2280439;60;1387;-88
2021/09/22 18:53:45;272495.00;0.91;470.63;92496.00;0.31;160.62;;;;;21.00;1.00;;;;;;2280367;60;1050;-87
2021/09/22 18:56:12;463103.00;1.54;798.32;75719.00;0.25;131.64;;;;;21.00;1.00;;;;;;2280125;60;1015;-88
2021/09/22 18:58:39;211057.00;0.70;364.95;34111.00;0.11;59.70;;;;;20.90;1.00;;;;;;2280477;60;1109;-87
2021/09/22 19:01:08;140731.00;0.47;243.83;0.00;0.00;0.62;;;;;20.80;1.00;;;;;;2280442;60;1402;-88
2021/09/22 19:03:36;121676.00;0.41;210.97;0.00;0.00;0.62;;;;;20.40;1.00;;;;;;2280403;60;2006;-88
2021/09/22 19:06:04;351161.00;1.17;605.86;77483.00;0.26;134.69;;;;;20.30;1.00;;;;;;2280400;60;1071;-88
2021/09/22 19:08:31;307569.00;1.03;530.93;62280.00;0.21;108.42;;;;;20.30;1.00;;;;;;2280426;60;1051;-88
2021/09/22 19:11:01;115957.00;0.39;201.11;0.00;0.00;0.62;;;;;20.40;1.00;;;;;;2280347;60;1097;-88
2021/09/22 19:13:28;486008.00;1.62;837.74;84795.00;0.28;147.32;;;;;20.00;1.00;;;;;;2280381;60;1740;-87
2021/09/22 19:15:55;174975.00;0.58;302.84;0.00;0.00;0.62;;;;;19.80;1.00;;;;;;2280403;60;951;-87
2021/09/22 19:18:22;358817.00;1.20;619.02;41715.00;0.14;72.86;;;;;19.70;1.00;;;;;;2280380;60;1110;-87
2021/09/22 19:20:50;185768.00;0.62;321.42;0.00;0.00;0.62;;;;;19.30;1.00;;;;;;2280419;60;901;-88
2021/09/22 19:23:17;236209.00;0.79;408.23;0.00;0.00;0.62;;;;;19.00;1.00;;;;;;2280347;60;2014;-88
2021/09/22 19:25:45;88103.00;0.29;153.03;0.00;0.00;0.62;;;;;19.10;1.00;;;;;;2280463;60;909;-89
2021/09/22 19:28:12;306076.00;1.02;528.36;0.00;0.00;0.62;;;;;18.90;1.00;;;;;;2280434;60;1771;-88
2021/09/22 19:30:40;112878.00;0.38;195.80;0.00;0.00;0.62;;;;;18.90;1.00;;;;;;2280465;60;1048;-87
2021/09/22 19:33:07;88288.00;0.29;153.35;0.00;0.00;0.62;;;;;19.10;1.00;;;;;;2280356;60;1312;-87
2021/09/22 19:35:34;59934.00;0.20;104.36;0.00;0.00;0.62;;;;;19.00;1.00;;;;;;2280314;60;1138;-87
2021/09/22 19:38:03;105964.00;0.35;183.87;0.00;0.00;0.62;;;;;18.90;1.00;;;;;;2280508;60;1164;-88
2021/09/22 19:40:30;21082.00;0.07;37.14;0.00;0.00;0.62;;;;;19.40;1.00;;;;;;2280430;60;1199;-88
2021/09/22 19:42:57;179825.00;0.60;311.19;0.00;0.00;0.62;;;;;19.70;1.00;;;;;;2280255;60;1996;-88
2021/09/22 19:45:24;100109.00;0.33;173.76;0.00;0.00;0.62;;;;;19.70;1.00;;;;;;2280397;60;1039;-88
2021/09/22 19:47:52;104552.00;0.35;181.43;0.00;0.00;0.62;;;;;19.80;1.00;;;;;;2280236;60;1677;-88
2021/09/22 19:50:19;126943.00;0.42;220.06;0.00;0.00;0.62;;;;;19.90;1.00;;;;;;2280267;60;1116;-87
2021/09/22 19:52:47;48953.00;0.16;85.38;0.00;0.00;0.62;;;;;19.90;1.00;;;;;;2280335;60;1365;-88
2021/09/22 19:55:16;190975.00;0.64;330.39;0.00;0.00;0.62;;;;;19.80;1.00;;;;;;2280796;60;1319;-88
2021/09/22 19:57:43;157089.00;0.52;272.02;0.00;0.00;0.62;;;;;19.80;1.00;;;;;;2272183;61;1025;-87
2021/09/22 20:00:11;207562.00;0.69;358.94;0.00;0.00;0.62;;;;;19.70;1.00;;;;;;2272075;61;906;-87
2021/09/22 20:02:39;174433.00;0.58;301.90;20610.00;0.07;36.33;;;;;19.50;1.00;;;;;;2272171;61;1910;-87
2021/09/22 20:05:10;138477.00;0.46;239.95;0.00;0.00;0.62;;;;;19.10;1.00;;;;;;2271607;61;1171;-87